Azle, Texas
Current Conditions -  °F | °C
As of 11:52 PM on Sunday 19 Oct 2014 (Local Time) from KNFW Reporting Station
Clear Clear  
Wind Chill: 67°   Ceiling: Unl
Heat Index: 67°   Visibility: 10mi
Dew Point: 55°   Wind: 5mph
Humidity: 66%   Direction: 160°SSE
Pressure: 30.09"   Gusts: NA
Location:  32.88°N, 97.54°W
Report Text: KNFW 200452Z AUTO 16004KT 10SM CLR 19/13 A3009 RMK AO2 SLP174 T01940128 CHINO N VISNO N $
Loading
Personal Weather Stations






























Interactive Weather Map
Tropical Storm Tracking
New forecast layout! Learn more

10-Day Weather Forecast

Advertisements
Track Severe Weather on mobile